DLH1AN EDDS-EDDF
Flight info
| Callsign | DLH1AN |
|---|---|
| Flight time | 0h 28m |
| Altitude | 21000 |
| Route | ETASA4B ETASA T163 SPESA SPESA5B |
| Aircraft | A21N/M-SDE2E3FGHIRWXY/LB1 |
Departure
| Time | 2026-05-06 16:29 |
|---|---|
| Airport | Stuttgart Airport (EDDS) |
Arrival
| Time | 2026-05-06 16:58 |
|---|---|
| Airport | Frankfurt Main Airport (EDDF) |
| Time | Latitude | Longitude | Altitude | Speed | Heading |
|---|---|---|---|---|---|
| 2026-05-06 15:35 | 48.68879 | 9.19361 | 1321 ft | 0 kts | 344° |
| 2026-05-06 16:16 | 48.68872 | 9.19364 | 1321 ft | 4 kts | 344° |
| 2026-05-06 16:17 | 48.68846 | 9.19376 | 1320 ft | 4 kts | 344° |
| 2026-05-06 16:17 | 48.68826 | 9.19382 | 1319 ft | 4 kts | 14° |
| 2026-05-06 16:17 | 48.68806 | 9.19362 | 1319 ft | 4 kts | 57° |
| 2026-05-06 16:17 | 48.68798 | 9.19335 | 1319 ft | 0 kts | 74° |
| 2026-05-06 16:22 | 48.68798 | 9.19338 | 1319 ft | 2 kts | 74° |
| 2026-05-06 16:22 | 48.68806 | 9.19378 | 1319 ft | 6 kts | 73° |
| 2026-05-06 16:22 | 48.68820 | 9.19451 | 1318 ft | 8 kts | 74° |
| 2026-05-06 16:23 | 48.68838 | 9.19547 | 1316 ft | 10 kts | 74° |
| 2026-05-06 16:23 | 48.68860 | 9.19662 | 1314 ft | 12 kts | 74° |
| 2026-05-06 16:23 | 48.68885 | 9.19796 | 1310 ft | 14 kts | 74° |
| 2026-05-06 16:23 | 48.68831 | 9.19902 | 1304 ft | 15 kts | 140° |
| 2026-05-06 16:24 | 48.68841 | 9.20050 | 1300 ft | 17 kts | 72° |
| 2026-05-06 16:24 | 48.68874 | 9.20227 | 1296 ft | 18 kts | 74° |
| 2026-05-06 16:24 | 48.68910 | 9.20416 | 1291 ft | 19 kts | 74° |
| 2026-05-06 16:24 | 48.68948 | 9.20618 | 1288 ft | 20 kts | 74° |
| 2026-05-06 16:25 | 48.68988 | 9.20830 | 1280 ft | 22 kts | 74° |
| 2026-05-06 16:25 | 48.69031 | 9.21055 | 1275 ft | 23 kts | 73° |
| 2026-05-06 16:25 | 48.69076 | 9.21289 | 1272 ft | 24 kts | 73° |
| 2026-05-06 16:25 | 48.69124 | 9.21537 | 1268 ft | 25 kts | 73° |
| 2026-05-06 16:26 | 48.69172 | 9.21799 | 1259 ft | 26 kts | 74° |
| 2026-05-06 16:26 | 48.69223 | 9.22071 | 1254 ft | 27 kts | 74° |
| 2026-05-06 16:26 | 48.69277 | 9.22352 | 1249 ft | 28 kts | 73° |
| 2026-05-06 16:26 | 48.69334 | 9.22641 | 1237 ft | 29 kts | 73° |
| 2026-05-06 16:27 | 48.69391 | 9.22947 | 1232 ft | 31 kts | 74° |
| 2026-05-06 16:27 | 48.69450 | 9.23260 | 1226 ft | 32 kts | 74° |
| 2026-05-06 16:27 | 48.69511 | 9.23588 | 1219 ft | 33 kts | 74° |
| 2026-05-06 16:27 | 48.69574 | 9.23920 | 1212 ft | 28 kts | 72° |
| 2026-05-06 16:28 | 48.69608 | 9.24094 | 1208 ft | 17 kts | 81° |
| 2026-05-06 16:28 | 48.69568 | 9.24269 | 1200 ft | 19 kts | 135° |
| 2026-05-06 16:28 | 48.69445 | 9.24330 | 1195 ft | 20 kts | 197° |
| 2026-05-06 16:28 | 48.69360 | 9.24162 | 1199 ft | 23 kts | 249° |
| 2026-05-06 16:29 | 48.69313 | 9.23913 | 1204 ft | 34 kts | 255° |
| 2026-05-06 16:29 | 48.69171 | 9.23170 | 1219 ft | 112 kts | 253° |
| 2026-05-06 16:29 | 48.68904 | 9.21746 | 1274 ft | 161 kts | 253° |
| 2026-05-06 16:29 | 48.68605 | 9.20130 | 2007 ft | 156 kts | 254° |
| 2026-05-06 16:30 | 48.68334 | 9.18567 | 2919 ft | 153 kts | 254° |
| 2026-05-06 16:30 | 48.68160 | 9.17509 | 3464 ft | 157 kts | 255° |
| 2026-05-06 16:30 | 48.67749 | 9.15322 | 4477 ft | 168 kts | 252° |
| 2026-05-06 16:30 | 48.67376 | 9.13583 | 5237 ft | 183 kts | 251° |
| 2026-05-06 16:31 | 48.66931 | 9.11593 | 5516 ft | 220 kts | 251° |
| 2026-05-06 16:31 | 48.66762 | 9.09191 | 5584 ft | 248 kts | 281° |
| 2026-05-06 16:31 | 48.67710 | 9.06794 | 5874 ft | 280 kts | 316° |
| 2026-05-06 16:31 | 48.69314 | 9.05273 | 7166 ft | 274 kts | 337° |
| 2026-05-06 16:32 | 48.71232 | 9.04827 | 8068 ft | 288 kts | 3° |
| 2026-05-06 16:32 | 48.73235 | 9.04842 | 9015 ft | 287 kts | 344° |
| 2026-05-06 16:32 | 48.75021 | 9.03628 | 9956 ft | 286 kts | 332° |
| 2026-05-06 16:32 | 48.76951 | 9.02520 | 10457 ft | 306 kts | 342° |
| 2026-05-06 16:33 | 48.79145 | 9.02007 | 10789 ft | 331 kts | 358° |
| 2026-05-06 16:33 | 48.81470 | 9.02498 | 11084 ft | 355 kts | 16° |
| 2026-05-06 16:33 | 48.83774 | 9.04132 | 11431 ft | 375 kts | 30° |
| 2026-05-06 16:34 | 48.88458 | 9.08093 | 12570 ft | 394 kts | 18° |
| 2026-05-06 16:34 | 48.91164 | 9.08914 | 13310 ft | 397 kts | 6° |
| 2026-05-06 16:34 | 48.93939 | 9.09304 | 14009 ft | 401 kts | 4° |
| 2026-05-06 16:34 | 48.96711 | 9.09659 | 14582 ft | 407 kts | 4° |
| 2026-05-06 16:35 | 48.99564 | 9.10035 | 15161 ft | 412 kts | 5° |
| 2026-05-06 16:35 | 49.02445 | 9.10428 | 15831 ft | 416 kts | 5° |
| 2026-05-06 16:35 | 49.05324 | 9.10836 | 16498 ft | 420 kts | 5° |
| 2026-05-06 16:35 | 49.08262 | 9.11259 | 17164 ft | 425 kts | 5° |
| 2026-05-06 16:36 | 49.11221 | 9.11675 | 17833 ft | 429 kts | 5° |
| 2026-05-06 16:36 | 49.14215 | 9.12097 | 18431 ft | 433 kts | 5° |
| 2026-05-06 16:36 | 49.17201 | 9.12530 | 18985 ft | 437 kts | 5° |
| 2026-05-06 16:36 | 49.20256 | 9.12969 | 19549 ft | 441 kts | 5° |
| 2026-05-06 16:37 | 49.23339 | 9.13404 | 20120 ft | 444 kts | 5° |
| 2026-05-06 16:37 | 49.26428 | 9.13841 | 20605 ft | 448 kts | 5° |
| 2026-05-06 16:37 | 49.29534 | 9.14282 | 20800 ft | 455 kts | 5° |
| 2026-05-06 16:37 | 49.32710 | 9.14744 | 20831 ft | 465 kts | 5° |
| 2026-05-06 16:38 | 49.35951 | 9.15218 | 20824 ft | 466 kts | 5° |
| 2026-05-06 16:38 | 49.39187 | 9.15688 | 20815 ft | 466 kts | 4° |
| 2026-05-06 16:38 | 49.42416 | 9.16152 | 20807 ft | 465 kts | 4° |
| 2026-05-06 16:38 | 49.45646 | 9.16615 | 20793 ft | 465 kts | 4° |
| 2026-05-06 16:39 | 49.48846 | 9.17074 | 20792 ft | 465 kts | 4° |
| 2026-05-06 16:39 | 49.52086 | 9.17538 | 20791 ft | 465 kts | 4° |
| 2026-05-06 16:39 | 49.55323 | 9.18003 | 20780 ft | 464 kts | 4° |
| 2026-05-06 16:39 | 49.58447 | 9.18457 | 20373 ft | 447 kts | 4° |
| 2026-05-06 16:40 | 49.61526 | 9.18997 | 19503 ft | 440 kts | 8° |
| 2026-05-06 16:40 | 49.64448 | 9.20213 | 18610 ft | 437 kts | 20° |
| 2026-05-06 16:40 | 49.67145 | 9.22300 | 17699 ft | 432 kts | 32° |
| 2026-05-06 16:40 | 49.69498 | 9.25177 | 16737 ft | 427 kts | 44° |
| 2026-05-06 16:41 | 49.71603 | 9.28395 | 15864 ft | 421 kts | 41° |
| 2026-05-06 16:41 | 49.74019 | 9.30810 | 14981 ft | 416 kts | 24° |
| 2026-05-06 16:41 | 49.76762 | 9.32140 | 14193 ft | 409 kts | 11° |
| 2026-05-06 16:41 | 49.79574 | 9.32656 | 13343 ft | 402 kts | 358° |
| 2026-05-06 16:42 | 49.82286 | 9.32050 | 12505 ft | 394 kts | 342° |
| 2026-05-06 16:42 | 49.84761 | 9.30316 | 11700 ft | 386 kts | 326° |
| 2026-05-06 16:42 | 49.86748 | 9.27644 | 11189 ft | 370 kts | 309° |
| 2026-05-06 16:42 | 49.88122 | 9.24451 | 10920 ft | 350 kts | 294° |
| 2026-05-06 16:43 | 49.88945 | 9.21009 | 10713 ft | 330 kts | 285° |
| 2026-05-06 16:43 | 49.89556 | 9.17697 | 10544 ft | 313 kts | 284° |
| 2026-05-06 16:43 | 49.90135 | 9.14513 | 10390 ft | 297 kts | 284° |
| 2026-05-06 16:43 | 49.90690 | 9.11529 | 10118 ft | 284 kts | 283° |
| 2026-05-06 16:44 | 49.91238 | 9.08600 | 9647 ft | 277 kts | 284° |
| 2026-05-06 16:44 | 49.91776 | 9.05742 | 9047 ft | 274 kts | 284° |
| 2026-05-06 16:44 | 49.92306 | 9.02939 | 8444 ft | 272 kts | 284° |
| 2026-05-06 16:44 | 49.92836 | 9.00122 | 7846 ft | 269 kts | 284° |
| 2026-05-06 16:45 | 49.93355 | 8.97368 | 7270 ft | 267 kts | 284° |
| 2026-05-06 16:45 | 49.94044 | 8.94689 | 6690 ft | 267 kts | 298° |
| 2026-05-06 16:45 | 49.95278 | 8.92568 | 6085 ft | 271 kts | 321° |
| 2026-05-06 16:45 | 49.97010 | 8.91361 | 5445 ft | 275 kts | 345° |
| 2026-05-06 16:46 | 49.98930 | 8.91196 | 4852 ft | 277 kts | 0° |
| 2026-05-06 16:46 | 50.00834 | 8.91445 | 4305 ft | 276 kts | 8° |
| 2026-05-06 16:46 | 50.02564 | 8.92577 | 4019 ft | 266 kts | 36° |
| 2026-05-06 16:46 | 50.03734 | 8.94637 | 3958 ft | 254 kts | 62° |
| 2026-05-06 16:47 | 50.04383 | 8.97129 | 3967 ft | 247 kts | 72° |
| 2026-05-06 16:47 | 50.04923 | 8.99677 | 3976 ft | 248 kts | 72° |
| 2026-05-06 16:47 | 50.05471 | 9.02217 | 3987 ft | 247 kts | 72° |
| 2026-05-06 16:47 | 50.06026 | 9.04716 | 3991 ft | 245 kts | 71° |
| 2026-05-06 16:48 | 50.06599 | 9.07230 | 3981 ft | 247 kts | 71° |
| 2026-05-06 16:48 | 50.07178 | 9.09746 | 3969 ft | 246 kts | 71° |
| 2026-05-06 16:48 | 50.07760 | 9.12271 | 3984 ft | 246 kts | 71° |
| 2026-05-06 16:48 | 50.08342 | 9.14787 | 3974 ft | 247 kts | 71° |
| 2026-05-06 16:49 | 50.09194 | 9.17089 | 3964 ft | 248 kts | 44° |
| 2026-05-06 16:49 | 50.10602 | 9.18512 | 3964 ft | 244 kts | 15° |
| 2026-05-06 16:49 | 50.12266 | 9.18745 | 3969 ft | 239 kts | 346° |
| 2026-05-06 16:49 | 50.13758 | 9.17740 | 3984 ft | 233 kts | 317° |
| 2026-05-06 16:50 | 50.14708 | 9.15813 | 3976 ft | 226 kts | 288° |
| 2026-05-06 16:50 | 50.15047 | 9.13439 | 3985 ft | 222 kts | 275° |
| 2026-05-06 16:50 | 50.15216 | 9.11029 | 3985 ft | 222 kts | 274° |
| 2026-05-06 16:50 | 50.15320 | 9.09440 | 3983 ft | 221 kts | 274° |
| 2026-05-06 16:51 | 50.15236 | 9.06277 | 3974 ft | 220 kts | 256° |
| 2026-05-06 16:51 | 50.14804 | 9.03979 | 3980 ft | 222 kts | 248° |
| 2026-05-06 16:51 | 50.14255 | 9.01743 | 3987 ft | 221 kts | 249° |
| 2026-05-06 16:51 | 50.13724 | 8.99507 | 3982 ft | 219 kts | 249° |
| 2026-05-06 16:52 | 50.13193 | 8.97275 | 3979 ft | 219 kts | 249° |
| 2026-05-06 16:52 | 50.12668 | 8.95061 | 3982 ft | 219 kts | 249° |
| 2026-05-06 16:52 | 50.12139 | 8.92838 | 3982 ft | 218 kts | 249° |
| 2026-05-06 16:52 | 50.11617 | 8.90638 | 3982 ft | 208 kts | 249° |
| 2026-05-06 16:53 | 50.11293 | 8.89275 | 3970 ft | 195 kts | 249° |
| 2026-05-06 16:53 | 50.10684 | 8.86711 | 3967 ft | 187 kts | 249° |
| 2026-05-06 16:53 | 50.10383 | 8.85448 | 3909 ft | 189 kts | 249° |
| 2026-05-06 16:53 | 50.09927 | 8.83529 | 3751 ft | 188 kts | 249° |
| 2026-05-06 16:54 | 50.09331 | 8.81025 | 3484 ft | 186 kts | 250° |
| 2026-05-06 16:54 | 50.09024 | 8.79728 | 3319 ft | 189 kts | 250° |
| 2026-05-06 16:54 | 50.08575 | 8.77843 | 3066 ft | 186 kts | 250° |
| 2026-05-06 16:54 | 50.08122 | 8.75940 | 2806 ft | 187 kts | 250° |
| 2026-05-06 16:55 | 50.07678 | 8.74074 | 2527 ft | 183 kts | 250° |
| 2026-05-06 16:55 | 50.07216 | 8.72124 | 2280 ft | 203 kts | 251° |
| 2026-05-06 16:55 | 50.06733 | 8.70103 | 2007 ft | 194 kts | 253° |
| 2026-05-06 16:55 | 50.06283 | 8.68212 | 1721 ft | 181 kts | 252° |
| 2026-05-06 16:56 | 50.05858 | 8.66431 | 1464 ft | 169 kts | 252° |
| 2026-05-06 16:56 | 50.05460 | 8.64765 | 1235 ft | 160 kts | 253° |
| 2026-05-06 16:56 | 50.05097 | 8.63248 | 1045 ft | 136 kts | 253° |
| 2026-05-06 16:56 | 50.04774 | 8.61927 | 856 ft | 133 kts | 255° |
| 2026-05-06 16:57 | 50.04447 | 8.60483 | 759 ft | 148 kts | 255° |
| 2026-05-06 16:57 | 50.04104 | 8.59050 | 467 ft | 133 kts | 252° |
| 2026-05-06 16:57 | 50.03794 | 8.57768 | 368 ft | 118 kts | 254° |
| 2026-05-06 16:57 | 50.03569 | 8.56804 | 360 ft | 74 kts | 251° |
| 2026-05-06 16:58 | 50.03444 | 8.56298 | 359 ft | 23 kts | 253° |
| 2026-05-06 16:58 | 50.03437 | 8.56074 | 358 ft | 11 kts | 278° |
| 2026-05-06 16:58 | 50.03449 | 8.55942 | 354 ft | 13 kts | 279° |
| 2026-05-06 16:58 | 50.03461 | 8.55841 | 353 ft | 3 kts | 280° |
| 2026-05-06 16:59 | 50.03466 | 8.55797 | 355 ft | 5 kts | 280° |
| 2026-05-06 16:59 | 50.03468 | 8.55779 | 356 ft | 2 kts | 280° |
| 2026-05-06 16:59 | 50.03474 | 8.55724 | 351 ft | 7 kts | 279° |
| 2026-05-06 16:59 | 50.03484 | 8.55631 | 350 ft | 10 kts | 279° |
| 2026-05-06 17:00 | 50.03494 | 8.55505 | 357 ft | 13 kts | 265° |
| 2026-05-06 17:00 | 50.03464 | 8.55357 | 350 ft | 15 kts | 248° |
| 2026-05-06 17:00 | 50.03422 | 8.55189 | 349 ft | 18 kts | 251° |
| 2026-05-06 17:00 | 50.03380 | 8.55001 | 350 ft | 19 kts | 250° |
| 2026-05-06 17:01 | 50.03371 | 8.54963 | 349 ft | 11 kts | 250° |
| 2026-05-06 17:01 | 50.03351 | 8.54878 | 348 ft | 15 kts | 250° |
| 2026-05-06 17:01 | 50.03313 | 8.54717 | 351 ft | 17 kts | 250° |
| 2026-05-06 17:01 | 50.03276 | 8.54550 | 348 ft | 16 kts | 272° |
| 2026-05-06 17:02 | 50.03370 | 8.54449 | 347 ft | 18 kts | 340° |
| 2026-05-06 17:02 | 50.03461 | 8.54394 | 356 ft | 16 kts | 340° |
| 2026-05-06 17:02 | 50.03569 | 8.54336 | 353 ft | 16 kts | 340° |
| 2026-05-06 17:02 | 50.03587 | 8.54326 | 347 ft | 0 kts | 341° |
| 2026-05-06 17:04 | 50.03589 | 8.54324 | 347 ft | 2 kts | 341° |
| 2026-05-06 17:04 | 50.03616 | 8.54312 | 347 ft | 6 kts | 352° |
| 2026-05-06 17:04 | 50.03661 | 8.54345 | 357 ft | 9 kts | 54° |
| 2026-05-06 17:04 | 50.03690 | 8.54453 | 349 ft | 12 kts | 70° |
| 2026-05-06 17:05 | 50.03724 | 8.54598 | 358 ft | 16 kts | 70° |
| 2026-05-06 17:05 | 50.03766 | 8.54771 | 356 ft | 19 kts | 70° |
| 2026-05-06 17:05 | 50.03814 | 8.54975 | 361 ft | 21 kts | 70° |
| 2026-05-06 17:05 | 50.03863 | 8.55182 | 355 ft | 18 kts | 69° |
| 2026-05-06 17:06 | 50.03910 | 8.55373 | 359 ft | 20 kts | 69° |
| 2026-05-06 17:06 | 50.03962 | 8.55587 | 359 ft | 22 kts | 69° |
| 2026-05-06 17:06 | 50.04018 | 8.55823 | 358 ft | 24 kts | 69° |
| 2026-05-06 17:06 | 50.04052 | 8.55949 | 357 ft | 13 kts | 47° |
| 2026-05-06 17:07 | 50.04147 | 8.55942 | 360 ft | 16 kts | 338° |
| 2026-05-06 17:07 | 50.04251 | 8.55949 | 362 ft | 15 kts | 28° |
| 2026-05-06 17:07 | 50.04346 | 8.55926 | 366 ft | 13 kts | 338° |
| 2026-05-06 17:07 | 50.04400 | 8.55907 | 362 ft | 9 kts | 1° |
| 2026-05-06 17:08 | 50.04470 | 8.55929 | 362 ft | 10 kts | 15° |
| 2026-05-06 17:08 | 50.04544 | 8.55970 | 361 ft | 13 kts | 34° |
| 2026-05-06 17:08 | 50.04587 | 8.56100 | 365 ft | 15 kts | 73° |
| 2026-05-06 17:08 | 50.04627 | 8.56263 | 361 ft | 17 kts | 68° |
| 2026-05-06 17:09 | 50.04655 | 8.56400 | 364 ft | 12 kts | 89° |
| 2026-05-06 17:09 | 50.04612 | 8.56470 | 361 ft | 6 kts | 183° |
| 2026-05-06 17:09 | 50.04567 | 8.56486 | 363 ft | 9 kts | 133° |
| 2026-05-06 17:09 | 50.04549 | 8.56531 | 361 ft | 2 kts | 113° |
| 2026-05-06 17:10 | 50.04539 | 8.56563 | 361 ft | 2 kts | 114° |
| 2026-05-06 17:10 | 50.04533 | 8.56584 | 363 ft | 0 kts | 114° |